createdAt,value
2023-02-05T00:01:31.279Z,12.13
2023-02-05T00:03:57.977Z,12.11
2023-02-05T00:06:25.515Z,12.10
2023-02-05T00:08:52.381Z,12.09
2023-02-05T00:11:19.183Z,12.08
2023-02-05T00:13:45.900Z,12.10
2023-02-05T00:16:17.140Z,12.09
2023-02-05T00:18:44.448Z,12.11
2023-02-05T00:21:12.404Z,12.10
2023-02-05T00:23:40.536Z,12.11
2023-02-05T00:26:08.590Z,12.10
2023-02-05T00:28:37.355Z,12.09
2023-02-05T00:31:11.308Z,12.10
2023-02-05T00:33:39.137Z,12.09
2023-02-05T00:36:06.754Z,12.09
2023-02-05T00:38:33.592Z,12.08
2023-02-05T00:41:00.353Z,12.09
2023-02-05T00:43:27.180Z,12.07
2023-02-05T00:45:53.959Z,12.06
2023-02-05T00:48:20.997Z,12.06
2023-02-05T00:50:52.054Z,12.08
2023-02-05T00:53:24.307Z,12.07
2023-02-05T00:55:51.670Z,12.06
2023-02-05T00:58:18.639Z,12.05
2023-02-05T01:00:46.065Z,12.05
2023-02-05T01:03:13.906Z,12.03
2023-02-05T01:05:41.513Z,12.03
2023-02-05T01:08:11.764Z,12.02
2023-02-05T01:10:43.753Z,12.01
2023-02-05T01:13:10.539Z,11.99
2023-02-05T01:15:37.528Z,11.98
2023-02-05T01:18:04.543Z,11.95
2023-02-05T01:20:31.378Z,11.93
2023-02-05T01:22:58.120Z,11.91
2023-02-05T01:25:25.010Z,11.89
2023-02-05T01:27:51.772Z,11.85
2023-02-05T01:30:18.705Z,11.84
2023-02-05T01:32:45.420Z,11.84
2023-02-05T01:35:12.224Z,11.83
2023-02-05T01:37:38.953Z,11.81
2023-02-05T01:40:06.367Z,11.82
2023-02-05T01:42:33.613Z,11.83
2023-02-05T01:45:22.271Z,11.84
2023-02-05T01:48:01.287Z,11.83
2023-02-05T01:50:40.324Z,11.80
2023-02-05T01:53:15.386Z,11.80
2023-02-05T01:55:54.423Z,11.79
2023-02-05T01:58:22.780Z,11.80
2023-02-05T02:00:49.830Z,11.80
2023-02-05T02:03:16.822Z,11.82
2023-02-05T02:05:43.551Z,11.84
2023-02-05T02:08:13.331Z,11.85
2023-02-05T02:10:44.011Z,11.85
2023-02-05T02:13:12.700Z,11.85
2023-02-05T02:15:41.260Z,11.85
2023-02-05T02:18:27.834Z,11.84
2023-02-05T02:21:29.769Z,11.84
2023-02-05T02:24:26.211Z,11.81
2023-02-05T02:27:05.135Z,11.80
2023-02-05T02:30:23.048Z,11.81
2023-02-05T02:33:18.959Z,11.77
2023-02-05T02:36:24.700Z,11.78
2023-02-05T02:39:02.859Z,11.76
2023-02-05T02:42:01.813Z,11.78
2023-02-05T02:44:46.811Z,11.77
2023-02-05T02:47:23.752Z,11.76
2023-02-05T02:50:11.909Z,11.77
2023-02-05T02:52:44.085Z,11.75
2023-02-05T02:55:15.622Z,11.77
2023-02-05T02:57:46.260Z,11.76
2023-02-05T03:00:25.351Z,11.75
2023-02-05T03:03:00.948Z,11.76
2023-02-05T03:05:29.522Z,11.76
2023-02-05T03:08:06.003Z,11.77
2023-02-05T03:10:44.396Z,11.79
2023-02-05T03:13:13.154Z,11.79
2023-02-05T03:15:43.945Z,11.82
2023-02-05T03:18:13.462Z,11.82
2023-02-05T03:20:59.231Z,11.84
2023-02-05T03:23:29.856Z,11.83
2023-02-05T03:25:56.722Z,11.85
2023-02-05T03:28:24.379Z,11.88
2023-02-05T03:31:14.806Z,11.89
2023-02-05T03:34:10.794Z,11.88
2023-02-05T03:37:09.981Z,11.88
2023-02-05T03:40:08.712Z,11.88
2023-02-05T03:42:47.135Z,11.87
2023-02-05T03:45:28.139Z,11.89
2023-02-05T03:48:35.591Z,11.89
2023-02-05T03:51:08.105Z,11.88
2023-02-05T03:53:53.527Z,11.88
2023-02-05T03:56:31.690Z,11.89
2023-02-05T03:59:00.042Z,11.91
2023-02-05T04:01:27.919Z,11.95
2023-02-05T04:03:55.146Z,11.95
2023-02-05T04:06:21.930Z,11.97
2023-02-05T04:08:48.639Z,11.96
2023-02-05T04:11:15.397Z,11.97
2023-02-05T04:13:42.131Z,11.96
2023-02-05T04:16:08.923Z,11.96
2023-02-05T04:18:35.679Z,11.95
2023-02-05T04:21:02.472Z,11.92
2023-02-05T04:23:29.241Z,11.91
2023-02-05T04:25:56.470Z,11.92
2023-02-05T04:28:23.251Z,11.93
2023-02-05T04:30:50.027Z,11.93
2023-02-05T04:33:16.779Z,11.96
2023-02-05T04:35:43.537Z,11.96
2023-02-05T04:38:10.358Z,11.98
2023-02-05T04:40:37.130Z,11.97
2023-02-05T04:43:03.883Z,11.96
2023-02-05T04:45:31.404Z,11.92
2023-02-05T04:48:00.207Z,11.88
2023-02-05T04:50:27.410Z,11.84
2023-02-05T04:52:54.290Z,11.81
2023-02-05T04:55:21.189Z,11.79
2023-02-05T04:57:47.980Z,11.79
2023-02-05T05:00:15.507Z,11.77
2023-02-05T05:02:42.267Z,11.75
2023-02-05T05:05:09.147Z,11.74
2023-02-05T05:07:35.839Z,11.70
2023-02-05T05:10:02.629Z,11.68
2023-02-05T05:12:29.404Z,11.69
2023-02-05T05:14:56.186Z,11.66
2023-02-05T05:17:22.938Z,11.65
2023-02-05T05:19:49.687Z,11.64
2023-02-05T05:22:16.417Z,11.63
2023-02-05T05:24:43.319Z,11.62
2023-02-05T05:27:10.276Z,11.60
2023-02-05T05:29:37.534Z,11.58
2023-02-05T05:32:05.287Z,11.56
2023-02-05T05:34:32.017Z,11.54
2023-02-05T05:36:58.724Z,11.54
2023-02-05T05:39:44.052Z,11.52
2023-02-05T05:42:30.789Z,11.48
2023-02-05T05:44:57.559Z,11.45
2023-02-05T05:47:24.273Z,11.45
2023-02-05T05:49:51.050Z,11.44
2023-02-05T05:52:17.807Z,11.43
2023-02-05T05:54:44.565Z,11.41
2023-02-05T05:57:11.305Z,11.39
2023-02-05T05:59:38.076Z,11.39
2023-02-05T06:02:05.621Z,11.51
2023-02-05T06:04:32.460Z,11.58
2023-02-05T06:06:59.960Z,11.51
2023-02-05T06:09:26.759Z,11.46
2023-02-05T06:11:53.666Z,11.41
2023-02-05T06:14:20.425Z,11.39
2023-02-05T06:16:47.164Z,11.38
2023-02-05T06:19:14.052Z,11.36
2023-02-05T06:21:40.764Z,11.33
2023-02-05T06:24:07.610Z,11.34
2023-02-05T06:26:34.392Z,11.32
2023-02-05T06:29:03.296Z,11.30
2023-02-05T06:31:33.130Z,11.28
2023-02-05T06:34:01.276Z,11.27
2023-02-05T06:36:27.987Z,11.26
2023-02-05T06:38:54.741Z,11.25
2023-02-05T06:41:21.511Z,11.27
2023-02-05T06:43:48.331Z,11.25
2023-02-05T06:46:15.715Z,11.22
2023-02-05T06:48:42.453Z,11.24
2023-02-05T06:51:09.189Z,11.22
2023-02-05T06:53:35.936Z,11.20
2023-02-05T06:56:02.676Z,11.20
2023-02-05T06:58:29.445Z,11.20
2023-02-05T07:00:56.204Z,11.19
2023-02-05T07:03:22.982Z,11.20
2023-02-05T07:05:49.670Z,11.19
2023-02-05T07:08:17.214Z,11.20
2023-02-05T07:10:44.046Z,11.20
2023-02-05T07:13:10.825Z,11.20
2023-02-05T07:15:38.005Z,11.20
2023-02-05T07:18:05.432Z,11.20
2023-02-05T07:20:32.293Z,11.18
2023-02-05T07:22:59.020Z,11.18
2023-02-05T07:25:25.812Z,11.19
2023-02-05T07:27:52.630Z,11.19
2023-02-05T07:30:19.509Z,11.20
2023-02-05T07:32:46.250Z,11.22
2023-02-05T07:35:13.010Z,11.22
2023-02-05T07:37:39.760Z,11.21
2023-02-05T07:40:07.444Z,11.22
2023-02-05T07:42:34.147Z,11.21
2023-02-05T07:45:00.908Z,11.19
2023-02-05T07:47:27.591Z,11.18
2023-02-05T07:49:54.394Z,11.19
2023-02-05T07:52:21.225Z,11.19
2023-02-05T07:54:48.673Z,11.20
2023-02-05T07:57:15.432Z,11.21
2023-02-05T07:59:42.436Z,11.23
2023-02-05T08:02:11.432Z,11.20
2023-02-05T08:04:38.177Z,11.20
2023-02-05T08:07:05.635Z,11.18
2023-02-05T08:09:33.107Z,11.15
2023-02-05T08:11:59.863Z,11.10
2023-02-05T08:14:26.658Z,11.09
2023-02-05T08:16:53.512Z,11.06
2023-02-05T08:19:20.220Z,11.04
2023-02-05T08:21:46.964Z,11.02
2023-02-05T08:24:13.710Z,11.00
2023-02-05T08:26:40.443Z,10.98
2023-02-05T08:29:08.471Z,10.97
2023-02-05T08:31:36.752Z,10.96
2023-02-05T08:34:04.284Z,10.95
2023-02-05T08:36:31.471Z,10.93
2023-02-05T08:38:58.224Z,10.90
2023-02-05T08:41:25.373Z,10.88
2023-02-05T08:43:52.136Z,10.84
2023-02-05T08:46:28.185Z,10.79
2023-02-05T08:48:58.395Z,10.74
2023-02-05T08:51:25.353Z,10.67
2023-02-05T08:53:53.368Z,10.64
2023-02-05T08:56:20.521Z,10.60
2023-02-05T08:58:47.403Z,10.57
2023-02-05T09:01:17.266Z,10.56
2023-02-05T09:03:44.910Z,10.54
2023-02-05T09:06:15.605Z,10.52
2023-02-05T09:08:42.811Z,10.51
2023-02-05T09:11:09.874Z,10.51
2023-02-05T09:13:37.090Z,10.52
2023-02-05T09:16:04.151Z,10.54
2023-02-05T09:18:30.883Z,10.57
2023-02-05T09:20:57.741Z,10.58
2023-02-05T09:23:24.550Z,10.62
2023-02-05T09:25:51.292Z,10.64
2023-02-05T09:28:18.209Z,10.66
2023-02-05T09:30:46.174Z,10.69
2023-02-05T09:33:14.284Z,10.71
2023-02-05T09:35:42.072Z,10.74
2023-02-05T09:38:13.156Z,10.77
2023-02-05T09:41:03.000Z,10.81
2023-02-05T09:43:48.313Z,10.81
2023-02-05T09:46:53.117Z,10.81
2023-02-05T09:49:32.292Z,10.79
2023-02-05T09:52:13.998Z,10.80
2023-02-05T09:54:47.037Z,10.79
2023-02-05T09:57:25.033Z,10.81
2023-02-05T09:59:51.952Z,10.84
2023-02-05T10:02:49.929Z,10.84
2023-02-05T10:05:21.128Z,10.81
2023-02-05T10:08:12.009Z,10.82
2023-02-05T10:10:51.036Z,10.83
2023-02-05T10:13:37.778Z,10.85
2023-02-05T10:16:47.304Z,10.84
2023-02-05T10:20:00.650Z,10.82
2023-02-05T10:22:47.554Z,10.82
2023-02-05T10:25:45.780Z,10.84
2023-02-05T10:28:52.738Z,10.83
2023-02-05T10:31:42.129Z,10.82
2023-02-05T10:34:36.525Z,10.82
2023-02-05T10:37:12.014Z,10.82
2023-02-05T10:39:38.930Z,10.82
2023-02-05T10:42:17.341Z,10.85
2023-02-05T10:44:48.879Z,10.87
2023-02-05T10:47:47.002Z,10.91
2023-02-05T10:50:20.713Z,10.91
2023-02-05T10:52:47.532Z,10.93
2023-02-05T10:55:14.725Z,10.97
2023-02-05T10:57:41.713Z,11.01
2023-02-05T11:00:22.619Z,11.05
2023-02-05T11:02:54.902Z,11.06
2023-02-05T11:05:34.431Z,11.09
2023-02-05T11:08:01.467Z,11.14
2023-02-05T11:10:33.781Z,11.20
2023-02-05T11:13:21.727Z,11.26
2023-02-05T11:16:08.347Z,11.28
2023-02-05T11:18:40.998Z,11.29
2023-02-05T11:21:10.522Z,11.31
2023-02-05T11:23:43.004Z,11.33
2023-02-05T11:26:24.889Z,11.31
2023-02-05T11:28:52.245Z,11.29
2023-02-05T11:31:26.380Z,11.29
2023-02-05T11:34:14.880Z,11.28
2023-02-05T11:36:53.552Z,11.24
2023-02-05T11:39:40.177Z,11.21
2023-02-05T11:42:23.683Z,11.19
2023-02-05T11:44:58.558Z,11.17
2023-02-05T11:47:32.635Z,11.16
2023-02-05T11:50:00.942Z,11.18
2023-02-05T11:52:35.161Z,11.17
2023-02-05T11:55:02.064Z,11.19
2023-02-05T11:57:35.370Z,11.21
2023-02-05T12:00:21.576Z,11.23
2023-02-05T12:02:54.137Z,11.22
2023-02-05T12:05:29.076Z,11.22
2023-02-05T12:08:09.635Z,11.19
2023-02-05T12:11:13.728Z,11.19
2023-02-05T12:14:04.605Z,11.15
2023-02-05T12:17:16.805Z,11.10
2023-02-05T12:20:02.220Z,11.05
2023-02-05T12:23:02.767Z,11.06
2023-02-05T12:26:16.429Z,11.05
2023-02-05T12:29:24.778Z,11.05
2023-02-05T12:32:04.650Z,11.06
2023-02-05T12:35:18.181Z,11.09
2023-02-05T12:38:21.236Z,11.06
2023-02-05T12:41:14.375Z,11.02
2023-02-05T12:43:48.706Z,11.01
2023-02-05T12:46:39.892Z,11.02
2023-02-05T12:49:19.952Z,11.03
2023-02-05T12:51:59.493Z,11.02
2023-02-05T12:54:51.861Z,11.00
2023-02-05T12:57:38.839Z,11.01
2023-02-05T13:00:27.737Z,11.00
2023-02-05T13:03:07.558Z,11.00
2023-02-05T13:05:48.028Z,10.98
2023-02-05T13:08:45.380Z,10.98
2023-02-05T13:11:26.663Z,10.91
2023-02-05T13:14:23.407Z,10.89
2023-02-05T13:17:01.524Z,10.86
2023-02-05T13:19:45.869Z,10.87
2023-02-05T13:22:58.825Z,10.88
2023-02-05T13:25:54.005Z,10.86
2023-02-05T13:28:42.362Z,10.86
2023-02-05T13:31:24.384Z,10.88
2023-02-05T13:33:54.782Z,10.89
2023-02-05T13:36:24.213Z,10.91
2023-02-05T13:39:33.824Z,10.88
2023-02-05T13:42:16.124Z,10.87
2023-02-05T13:45:29.892Z,11.31
2023-02-05T13:48:21.126Z,11.22
2023-02-05T13:51:19.859Z,11.34
2023-02-05T13:54:01.569Z,11.27
2023-02-05T13:56:44.771Z,11.14
2023-02-05T13:59:23.776Z,11.06
2023-02-05T14:02:00.310Z,11.00
2023-02-05T14:04:42.103Z,10.95
2023-02-05T14:07:25.419Z,10.93
2023-02-05T14:09:59.559Z,10.89
2023-02-05T14:12:37.223Z,10.89
2023-02-05T14:15:16.236Z,10.87
2023-02-05T14:17:42.845Z,10.87
2023-02-05T14:20:24.669Z,10.86
2023-02-05T14:23:00.946Z,10.83
2023-02-05T14:25:37.992Z,10.81
2023-02-05T14:28:17.069Z,10.77
2023-02-05T14:30:57.017Z,10.79
2023-02-05T14:33:28.955Z,10.79
2023-02-05T14:36:20.716Z,10.81
2023-02-05T14:39:30.337Z,10.81
2023-02-05T14:41:59.452Z,10.79
2023-02-05T14:44:31.620Z,10.82
2023-02-05T14:47:17.184Z,10.84
2023-02-05T14:49:48.046Z,10.86
2023-02-05T14:52:35.412Z,11.18
2023-02-05T14:55:14.213Z,11.19
2023-02-05T14:57:52.555Z,11.08
2023-02-05T15:00:41.733Z,11.03
2023-02-05T15:03:32.439Z,10.98
2023-02-05T15:06:14.921Z,10.94
2023-02-05T15:08:50.109Z,10.92
2023-02-05T15:11:28.544Z,10.92
2023-02-05T15:14:24.370Z,10.93
2023-02-05T15:17:11.525Z,10.92
2023-02-05T15:19:49.988Z,10.92
2023-02-05T15:22:31.088Z,10.92
2023-02-05T15:25:02.028Z,10.90
2023-02-05T15:27:45.320Z,10.89
2023-02-05T15:30:22.840Z,10.86
2023-02-05T15:33:05.471Z,10.83
2023-02-05T15:35:34.535Z,10.83
2023-02-05T15:38:38.806Z,10.81
2023-02-05T15:41:07.887Z,10.79
2023-02-05T15:43:34.660Z,10.82
2023-02-05T15:46:08.529Z,10.85
2023-02-05T15:48:39.402Z,10.86
2023-02-05T15:51:28.568Z,10.88
2023-02-05T15:53:59.079Z,10.88
2023-02-05T15:56:42.309Z,10.91
2023-02-05T15:59:20.226Z,10.90
2023-02-05T16:01:51.122Z,10.92
2023-02-05T16:04:37.885Z,10.93
2023-02-05T16:07:27.884Z,10.92
2023-02-05T16:09:59.380Z,10.90
2023-02-05T16:12:27.251Z,10.91
2023-02-05T16:15:14.553Z,10.94
2023-02-05T16:17:49.778Z,10.94
2023-02-05T16:20:46.883Z,10.95
2023-02-05T16:23:33.938Z,10.93
2023-02-05T16:26:31.108Z,10.92
2023-02-05T16:29:11.720Z,10.90
2023-02-05T16:31:47.474Z,10.89
2023-02-05T16:34:21.555Z,10.85
2023-02-05T16:36:50.278Z,10.79
2023-02-05T16:39:39.500Z,10.76
2023-02-05T16:42:15.547Z,10.71
2023-02-05T16:44:49.620Z,10.70
2023-02-05T16:47:19.737Z,10.70
2023-02-05T16:49:48.851Z,10.71
2023-02-05T16:52:36.451Z,10.72
2023-02-05T16:55:28.118Z,10.69
2023-02-05T16:58:04.648Z,10.69
2023-02-05T17:00:31.707Z,10.70
2023-02-05T17:03:07.317Z,10.73
2023-02-05T17:05:36.970Z,10.74
2023-02-05T17:08:12.138Z,10.75
2023-02-05T17:10:54.813Z,10.74
2023-02-05T17:13:44.819Z,10.74
2023-02-05T17:16:26.775Z,10.71
2023-02-05T17:19:06.475Z,10.70
2023-02-05T17:21:37.415Z,10.71
2023-02-05T17:24:09.069Z,10.72
2023-02-05T17:26:40.902Z,10.71
2023-02-05T17:29:15.250Z,10.69
2023-02-05T17:31:42.355Z,10.66
2023-02-05T17:34:12.244Z,10.62
2023-02-05T17:36:39.058Z,10.61
2023-02-05T17:39:05.798Z,10.56
2023-02-05T17:41:55.423Z,10.53
2023-02-05T17:44:22.180Z,10.46
2023-02-05T17:46:49.462Z,10.43
2023-02-05T17:49:16.188Z,10.40
2023-02-05T17:51:43.795Z,10.40
2023-02-05T17:54:17.549Z,10.39
2023-02-05T17:56:46.622Z,10.39
2023-02-05T17:59:22.935Z,10.38
2023-02-05T18:01:50.881Z,10.40
2023-02-05T18:04:18.896Z,10.42
2023-02-05T18:06:48.831Z,10.42
2023-02-05T18:09:16.466Z,10.42
2023-02-05T18:11:43.194Z,10.42
2023-02-05T18:14:10.403Z,10.39
2023-02-05T18:16:37.517Z,10.36
2023-02-05T18:19:05.082Z,10.32
2023-02-05T18:21:31.877Z,10.28
2023-02-05T18:23:58.766Z,10.23
2023-02-05T18:26:27.066Z,10.19
2023-02-05T18:28:54.660Z,10.14
2023-02-05T18:31:21.537Z,10.08
2023-02-05T18:33:51.428Z,10.05
2023-02-05T18:36:18.369Z,10.01
2023-02-05T18:38:45.117Z,9.99
2023-02-05T18:41:21.684Z,9.99
2023-02-05T18:43:48.589Z,9.97
2023-02-05T18:46:18.247Z,9.94
2023-02-05T18:48:45.897Z,9.91
2023-02-05T18:51:17.474Z,9.90
2023-02-05T18:53:46.016Z,9.87
2023-02-05T18:56:20.095Z,9.85
2023-02-05T18:59:02.187Z,9.80
2023-02-05T19:01:32.245Z,9.76
2023-02-05T19:04:05.878Z,9.71
2023-02-05T19:06:33.669Z,9.67
2023-02-05T19:09:01.404Z,9.63
2023-02-05T19:11:30.298Z,9.61
2023-02-05T19:14:04.653Z,9.57
2023-02-05T19:16:34.293Z,9.52
2023-02-05T19:19:02.615Z,9.48
2023-02-05T19:21:31.415Z,9.44
2023-02-05T19:24:05.276Z,9.38
2023-02-05T19:26:34.206Z,9.35
2023-02-05T19:29:05.216Z,9.32
2023-02-05T19:31:36.922Z,9.29
2023-02-05T19:34:04.759Z,9.27
2023-02-05T19:36:32.087Z,9.24
2023-02-05T19:39:05.722Z,9.22
2023-02-05T19:41:35.770Z,9.20
2023-02-05T19:44:07.316Z,9.22
2023-02-05T19:46:38.717Z,9.18
2023-02-05T19:49:11.750Z,9.19
2023-02-05T19:51:38.578Z,9.18
2023-02-05T19:54:06.664Z,9.15
2023-02-05T19:56:37.607Z,9.14
2023-02-05T19:59:05.498Z,9.14
2023-02-05T20:01:38.471Z,9.13
2023-02-05T20:04:21.175Z,9.13
2023-02-05T20:06:48.952Z,9.12
2023-02-05T20:09:16.979Z,9.11
2023-02-05T20:11:47.756Z,9.13
2023-02-05T20:14:16.658Z,9.13
2023-02-05T20:16:47.119Z,9.10
2023-02-05T20:19:17.191Z,9.10
2023-02-05T20:21:46.208Z,9.08
2023-02-05T20:24:13.524Z,9.05
2023-02-05T20:26:40.766Z,9.04
2023-02-05T20:29:26.103Z,9.00
2023-02-05T20:31:54.863Z,8.97
2023-02-05T20:34:30.401Z,8.94
2023-02-05T20:37:04.806Z,8.92
2023-02-05T20:39:34.787Z,8.86
2023-02-05T20:42:02.361Z,8.85
2023-02-05T20:44:33.886Z,8.88
2023-02-05T20:47:00.731Z,8.90
2023-02-05T20:49:27.765Z,8.95
2023-02-05T20:51:54.883Z,8.98
2023-02-05T20:54:22.996Z,9.04
2023-02-05T20:56:59.004Z,9.08
2023-02-05T20:59:28.381Z,9.09
2023-02-05T21:01:55.775Z,9.11
2023-02-05T21:04:23.064Z,9.12
2023-02-05T21:06:50.057Z,9.12
2023-02-05T21:09:17.147Z,9.11
2023-02-05T21:11:44.006Z,9.10
2023-02-05T21:14:11.225Z,9.10
2023-02-05T21:16:40.176Z,9.08
2023-02-05T21:19:08.331Z,9.05
2023-02-05T21:21:37.224Z,9.02
2023-02-05T21:24:08.111Z,8.98
2023-02-05T21:26:38.591Z,8.95
2023-02-05T21:29:10.790Z,8.91
2023-02-05T21:31:47.930Z,8.86
2023-02-05T21:34:22.568Z,8.80
2023-02-05T21:36:50.646Z,8.75
2023-02-05T21:39:18.607Z,8.69
2023-02-05T21:41:46.300Z,8.65
2023-02-05T21:44:13.401Z,8.61
2023-02-05T21:46:40.282Z,8.57
2023-02-05T21:49:07.076Z,8.52
2023-02-05T21:51:35.197Z,8.47
2023-02-05T21:54:05.705Z,8.43
2023-02-05T21:56:40.714Z,8.38
2023-02-05T21:59:09.179Z,8.33
2023-02-05T22:01:38.573Z,8.29
2023-02-05T22:04:11.685Z,8.26
2023-02-05T22:06:39.821Z,8.20
2023-02-05T22:09:09.793Z,8.16
2023-02-05T22:11:39.168Z,8.13
2023-02-05T22:14:06.785Z,8.11
2023-02-05T22:16:35.261Z,8.08
2023-02-05T22:19:03.605Z,8.04
2023-02-05T22:21:37.332Z,8.00
2023-02-05T22:24:06.545Z,7.96
2023-02-05T22:26:38.132Z,7.95
2023-02-05T22:29:08.773Z,7.91
2023-02-05T22:31:36.091Z,7.88
2023-02-05T22:34:03.407Z,7.85
2023-02-05T22:36:33.483Z,7.83
2023-02-05T22:39:01.391Z,7.81
2023-02-05T22:41:32.913Z,7.80
2023-02-05T22:44:02.120Z,7.77
2023-02-05T22:46:33.156Z,7.77
2023-02-05T22:49:01.947Z,7.75
2023-02-05T22:51:35.784Z,7.74
2023-02-05T22:54:03.878Z,7.71
2023-02-05T22:56:31.138Z,7.70
2023-02-05T22:58:58.250Z,7.68
2023-02-05T23:01:32.154Z,7.66
2023-02-05T23:04:03.047Z,7.64
2023-02-05T23:06:37.539Z,7.60
2023-02-05T23:09:09.868Z,7.59
2023-02-05T23:11:37.294Z,7.56
2023-02-05T23:14:06.789Z,7.55
2023-02-05T23:16:39.100Z,7.52
2023-02-05T23:19:11.837Z,7.51
2023-02-05T23:21:40.226Z,7.50
2023-02-05T23:24:08.669Z,7.49
2023-02-05T23:26:41.920Z,7.49
2023-02-05T23:29:11.937Z,7.46
2023-02-05T23:31:39.357Z,7.45
2023-02-05T23:34:06.599Z,7.45
2023-02-05T23:36:33.485Z,7.44
2023-02-05T23:39:00.294Z,7.41
2023-02-05T23:41:36.379Z,7.40
2023-02-05T23:44:11.950Z,7.38
2023-02-05T23:46:40.772Z,7.37
2023-02-05T23:49:08.742Z,7.36
2023-02-05T23:51:35.934Z,7.34
2023-02-05T23:54:02.865Z,7.35
2023-02-05T23:56:29.876Z,7.35
2023-02-05T23:58:57.137Z,7.34
